createdAt,value
2022-12-26T00:02:04.948Z,99.90
2022-12-26T00:04:50.780Z,99.90
2022-12-26T00:07:23.053Z,99.90
2022-12-26T00:09:51.399Z,99.90
2022-12-26T00:12:19.775Z,99.90
2022-12-26T00:14:48.141Z,99.90
2022-12-26T00:17:16.446Z,99.90
2022-12-26T00:19:44.797Z,99.90
2022-12-26T00:22:15.986Z,99.90
2022-12-26T00:24:45.837Z,99.90
2022-12-26T00:27:14.207Z,99.90
2022-12-26T00:29:42.568Z,99.90
2022-12-26T00:32:10.930Z,99.90
2022-12-26T00:34:40.055Z,99.90
2022-12-26T00:37:11.849Z,99.90
2022-12-26T00:39:40.163Z,99.90
2022-12-26T00:42:09.981Z,99.90
2022-12-26T00:44:38.395Z,99.90
2022-12-26T00:47:06.776Z,99.90
2022-12-26T00:50:13.893Z,99.90
2022-12-26T00:52:23.521Z,99.90
2022-12-26T00:54:51.832Z,99.90
2022-12-26T00:57:21.773Z,99.90
2022-12-26T00:59:50.139Z,99.90
2022-12-26T01:02:36.332Z,99.90
2022-12-26T01:05:05.062Z,99.90
2022-12-26T01:07:35.357Z,99.90
2022-12-26T01:10:24.011Z,99.90
2022-12-26T01:12:53.886Z,99.90
2022-12-26T01:15:22.429Z,99.90
2022-12-26T01:17:50.812Z,99.90
2022-12-26T01:20:19.325Z,99.90
2022-12-26T01:22:47.815Z,99.90
2022-12-26T01:25:16.172Z,99.90
2022-12-26T01:27:44.484Z,99.90
2022-12-26T01:30:14.590Z,99.90
2022-12-26T01:32:46.904Z,99.90
2022-12-26T01:35:15.388Z,99.90
2022-12-26T01:37:43.737Z,99.90
2022-12-26T01:40:14.395Z,99.90
2022-12-26T01:42:43.414Z,99.90
2022-12-26T01:45:25.389Z,99.90
2022-12-26T01:47:59.734Z,99.90
2022-12-26T01:50:41.856Z,99.90
2022-12-26T01:53:15.264Z,99.90
2022-12-26T01:55:47.072Z,99.90
2022-12-26T01:58:21.442Z,99.90
2022-12-26T02:00:52.135Z,99.90
2022-12-26T02:06:56.242Z,99.90
2022-12-26T02:09:25.211Z,99.90
2022-12-26T02:12:35.988Z,99.90
2022-12-26T02:14:50.547Z,99.90
2022-12-26T02:17:20.610Z,99.90
2022-12-26T02:19:56.426Z,99.90
2022-12-26T02:22:51.728Z,99.90
2022-12-26T02:25:42.594Z,99.90
2022-12-26T02:28:47.659Z,99.90
2022-12-26T02:31:22.058Z,99.90
2022-12-26T02:34:03.825Z,99.90
2022-12-26T02:37:07.681Z,99.90
2022-12-26T02:39:58.217Z,99.90
2022-12-26T02:42:37.452Z,99.90
2022-12-26T02:45:33.601Z,99.90
2022-12-26T02:48:10.350Z,99.90
2022-12-26T02:51:13.057Z,99.90
2022-12-26T02:54:06.004Z,99.90
2022-12-26T02:56:55.407Z,99.90
2022-12-26T03:03:01.993Z,99.90
2022-12-26T03:05:54.277Z,99.90
2022-12-26T03:08:52.629Z,99.90
2022-12-26T03:11:38.430Z,99.90
2022-12-26T03:14:14.455Z,99.90
2022-12-26T03:17:01.883Z,99.90
2022-12-26T03:19:33.697Z,99.90
2022-12-26T03:22:29.875Z,99.90
2022-12-26T03:25:30.368Z,99.90
2022-12-26T03:27:58.737Z,99.90
2022-12-26T03:30:44.744Z,99.90
2022-12-26T03:33:35.310Z,99.90
2022-12-26T03:36:05.866Z,99.90
2022-12-26T03:38:51.501Z,99.90
2022-12-26T03:41:45.605Z,99.90
2022-12-26T03:44:53.290Z,99.90
2022-12-26T03:47:46.507Z,99.90
2022-12-26T03:50:44.090Z,99.90
2022-12-26T03:53:36.080Z,99.90
2022-12-26T03:56:29.508Z,99.90
2022-12-26T03:59:26.752Z,99.90
2022-12-26T04:02:14.763Z,99.90
2022-12-26T04:05:03.494Z,99.90
2022-12-26T04:07:56.117Z,99.90
2022-12-26T04:14:09.422Z,99.90
2022-12-26T04:16:59.638Z,99.90
2022-12-26T04:19:45.648Z,99.90
2022-12-26T04:22:35.986Z,99.90
2022-12-26T04:25:50.497Z,99.90
2022-12-26T04:28:38.443Z,99.90
2022-12-26T04:34:39.263Z,99.90
2022-12-26T04:37:32.749Z,99.90
2022-12-26T04:40:20.632Z,99.90
2022-12-26T04:43:50.392Z,99.90
2022-12-26T04:46:03.002Z,99.90
2022-12-26T04:49:16.163Z,99.90
2022-12-26T04:52:07.410Z,99.90
2022-12-26T04:54:35.852Z,99.90
2022-12-26T04:57:04.712Z,99.90
2022-12-26T04:59:33.252Z,99.90
2022-12-26T05:02:19.042Z,99.90
2022-12-26T05:05:06.618Z,99.90
2022-12-26T05:07:55.576Z,99.90
2022-12-26T05:10:26.776Z,99.90
2022-12-26T05:12:56.176Z,99.90
2022-12-26T05:15:25.037Z,99.90
2022-12-26T05:18:10.713Z,99.90
2022-12-26T05:21:46.941Z,99.90
2022-12-26T05:24:34.040Z,99.90
2022-12-26T05:27:20.059Z,99.90
2022-12-26T05:29:48.623Z,99.90
2022-12-26T05:32:34.105Z,99.90
2022-12-26T05:35:03.550Z,99.90
2022-12-26T05:37:31.860Z,99.90
2022-12-26T05:40:01.598Z,99.90
2022-12-26T05:42:29.955Z,99.90
2022-12-26T05:44:58.307Z,99.90
2022-12-26T05:47:26.711Z,99.90
2022-12-26T05:49:54.969Z,99.90
2022-12-26T05:52:48.888Z,99.90
2022-12-26T05:55:18.780Z,99.90
2022-12-26T05:57:47.157Z,99.90
2022-12-26T06:00:16.585Z,99.90
2022-12-26T06:02:45.331Z,99.90
2022-12-26T06:05:13.774Z,99.90
2022-12-26T06:07:42.114Z,99.90
2022-12-26T06:10:11.137Z,99.90
2022-12-26T06:12:40.995Z,99.90
2022-12-26T06:15:10.453Z,99.90
2022-12-26T06:17:38.856Z,99.90
2022-12-26T06:20:08.555Z,99.90
2022-12-26T06:22:36.903Z,99.90
2022-12-26T06:25:05.756Z,99.90
2022-12-26T06:27:34.068Z,99.90
2022-12-26T06:30:03.876Z,99.90
2022-12-26T06:32:33.211Z,99.90
2022-12-26T06:35:01.563Z,99.90
2022-12-26T06:37:31.139Z,99.90
2022-12-26T06:39:59.486Z,99.90
2022-12-26T06:42:29.880Z,99.90
2022-12-26T06:44:58.233Z,99.90
2022-12-26T06:47:27.939Z,99.90
2022-12-26T06:49:56.273Z,99.90
2022-12-26T06:52:24.614Z,96.90
2022-12-26T06:54:52.974Z,96.20
2022-12-26T06:57:21.306Z,93.10
2022-12-26T06:59:49.688Z,93.90
2022-12-26T07:02:18.129Z,91.40
2022-12-26T07:04:47.913Z,90.70
2022-12-26T07:07:16.237Z,91.20
2022-12-26T07:09:44.561Z,91.80
2022-12-26T07:12:12.882Z,92.50
2022-12-26T07:14:41.290Z,97.10
2022-12-26T07:17:11.152Z,99.90
2022-12-26T07:19:39.600Z,99.90
2022-12-26T07:22:09.391Z,99.90
2022-12-26T07:24:37.839Z,99.90
2022-12-26T07:27:06.166Z,99.90
2022-12-26T07:29:34.622Z,99.90
2022-12-26T07:32:02.994Z,99.90
2022-12-26T07:34:32.265Z,99.90
2022-12-26T07:37:00.733Z,99.90
2022-12-26T07:39:31.485Z,99.90
2022-12-26T07:42:07.019Z,99.90
2022-12-26T07:44:35.365Z,99.90
2022-12-26T07:47:06.039Z,99.90
2022-12-26T07:49:34.385Z,99.90
2022-12-26T07:52:08.906Z,99.90
2022-12-26T07:54:38.621Z,99.90
2022-12-26T07:57:46.310Z,99.90
2022-12-26T07:59:56.587Z,99.90
2022-12-26T08:02:25.185Z,99.90
2022-12-26T08:04:53.676Z,99.90
2022-12-26T08:07:22.044Z,99.90
2022-12-26T08:09:51.728Z,99.90
2022-12-26T08:12:21.664Z,99.90
2022-12-26T08:14:51.206Z,99.90
2022-12-26T08:17:19.621Z,99.90
2022-12-26T08:19:49.074Z,99.90
2022-12-26T08:22:18.374Z,99.90
2022-12-26T08:24:46.726Z,99.90
2022-12-26T08:27:17.492Z,99.90
2022-12-26T08:29:45.861Z,99.90
2022-12-26T08:32:14.169Z,99.90
2022-12-26T08:34:42.540Z,99.90
2022-12-26T08:37:11.263Z,99.90
2022-12-26T08:39:40.639Z,99.90
2022-12-26T08:42:09.973Z,99.90
2022-12-26T08:44:39.704Z,99.90
2022-12-26T08:47:08.055Z,99.90
2022-12-26T08:49:36.504Z,97.40
2022-12-26T08:52:04.930Z,91.00
2022-12-26T08:54:33.574Z,78.40
2022-12-26T08:57:01.947Z,71.40
2022-12-26T08:59:30.314Z,68.00
2022-12-26T09:02:00.143Z,63.80
2022-12-26T09:04:28.690Z,63.30
2022-12-26T09:06:56.991Z,62.30
2022-12-26T09:09:25.315Z,61.10
2022-12-26T09:11:53.757Z,61.50
2022-12-26T09:14:22.223Z,63.00
2022-12-26T09:16:51.876Z,66.60
2022-12-26T09:19:23.060Z,71.50
2022-12-26T09:22:13.043Z,76.20
2022-12-26T09:24:46.719Z,83.80
2022-12-26T09:27:15.047Z,92.60
2022-12-26T09:29:43.405Z,96.60
2022-12-26T09:32:11.688Z,99.60
2022-12-26T09:34:41.620Z,99.90
2022-12-26T09:37:09.905Z,99.90
2022-12-26T09:39:38.267Z,99.90
2022-12-26T09:42:15.979Z,99.90
2022-12-26T09:44:51.687Z,99.90
2022-12-26T09:47:32.276Z,99.90
2022-12-26T09:50:06.771Z,99.90
2022-12-26T09:52:42.248Z,99.90
2022-12-26T09:55:33.604Z,99.90
2022-12-26T09:58:08.371Z,99.90
2022-12-26T10:00:45.076Z,99.90
2022-12-26T10:03:24.251Z,99.90
2022-12-26T10:06:16.880Z,99.90
2022-12-26T10:09:02.345Z,99.90
2022-12-26T10:11:40.229Z,99.90
2022-12-26T10:14:21.712Z,99.90
2022-12-26T10:16:57.573Z,99.90
2022-12-26T10:19:40.709Z,99.90
2022-12-26T10:22:28.555Z,99.90
2022-12-26T10:25:00.301Z,99.90
2022-12-26T10:27:39.167Z,99.90
2022-12-26T10:30:15.299Z,99.90
2022-12-26T10:32:47.357Z,99.90
2022-12-26T10:35:24.890Z,99.90
2022-12-26T10:37:56.174Z,99.90
2022-12-26T10:40:29.572Z,99.90
2022-12-26T10:43:03.216Z,99.90
2022-12-26T10:45:39.044Z,99.90
2022-12-26T10:48:32.944Z,99.90
2022-12-26T10:51:01.392Z,99.90
2022-12-26T10:53:31.260Z,99.90
2022-12-26T10:56:01.968Z,99.90
2022-12-26T10:58:34.873Z,99.90
2022-12-26T11:01:35.859Z,99.90
2022-12-26T11:04:06.467Z,99.90
2022-12-26T11:06:39.058Z,99.90
2022-12-26T11:09:21.094Z,99.90
2022-12-26T11:11:53.018Z,99.90
2022-12-26T11:14:33.802Z,99.90
2022-12-26T11:17:05.957Z,99.90
2022-12-26T11:19:36.257Z,99.90
2022-12-26T11:22:29.559Z,99.90
2022-12-26T11:25:19.201Z,99.90
2022-12-26T11:27:49.837Z,99.90
2022-12-26T11:30:48.636Z,99.90
2022-12-26T11:33:37.573Z,99.90
2022-12-26T11:36:11.709Z,99.90
2022-12-26T11:38:51.200Z,99.90
2022-12-26T11:41:36.767Z,99.90
2022-12-26T11:44:20.008Z,99.90
2022-12-26T11:46:52.355Z,99.90
2022-12-26T11:49:38.875Z,99.90
2022-12-26T11:52:34.734Z,99.90
2022-12-26T11:55:03.418Z,99.90
2022-12-26T11:57:34.384Z,99.90
2022-12-26T12:00:17.827Z,99.90
2022-12-26T12:02:46.572Z,99.90
2022-12-26T12:05:17.481Z,99.90
2022-12-26T12:08:05.140Z,99.90
2022-12-26T12:11:01.272Z,99.90
2022-12-26T12:13:47.094Z,99.90
2022-12-26T12:16:39.902Z,99.90
2022-12-26T12:19:25.244Z,99.90
2022-12-26T12:22:19.452Z,99.90
2022-12-26T12:25:18.011Z,99.90
2022-12-26T12:27:51.985Z,99.90
2022-12-26T12:30:25.103Z,99.90
2022-12-26T12:33:26.511Z,99.90
2022-12-26T12:36:04.646Z,99.90
2022-12-26T12:42:13.351Z,99.90
2022-12-26T12:44:56.831Z,99.90
2022-12-26T12:47:39.048Z,99.90
2022-12-26T12:50:18.502Z,99.90
2022-12-26T12:52:56.603Z,99.90
2022-12-26T12:55:56.378Z,99.90
2022-12-26T12:58:32.485Z,99.90
2022-12-26T13:01:04.960Z,99.90
2022-12-26T13:03:40.804Z,99.90
2022-12-26T13:06:12.784Z,99.90
2022-12-26T13:08:46.900Z,99.90
2022-12-26T13:11:21.752Z,99.90
2022-12-26T13:13:55.723Z,99.90
2022-12-26T13:16:27.784Z,99.90
2022-12-26T13:19:02.157Z,99.90
2022-12-26T13:21:33.101Z,99.90
2022-12-26T13:24:23.751Z,99.90
2022-12-26T13:26:59.173Z,99.90
2022-12-26T13:29:40.202Z,99.90
2022-12-26T13:32:19.329Z,99.90
2022-12-26T13:34:50.024Z,99.90
2022-12-26T13:37:56.163Z,99.90
2022-12-26T13:40:28.334Z,99.90
2022-12-26T13:47:03.156Z,99.90
2022-12-26T13:49:37.254Z,99.90
2022-12-26T13:52:35.787Z,99.90
2022-12-26T13:55:56.425Z,99.90
2022-12-26T13:58:37.623Z,99.90
2022-12-26T14:01:18.647Z,99.90
2022-12-26T14:04:02.547Z,99.90
2022-12-26T14:06:51.398Z,99.90
2022-12-26T14:09:53.643Z,99.90
2022-12-26T14:12:45.824Z,99.90
2022-12-26T14:15:28.215Z,99.90
2022-12-26T14:18:14.804Z,99.90
2022-12-26T14:20:49.940Z,99.90
2022-12-26T14:23:33.109Z,99.90
2022-12-26T14:26:09.461Z,99.90
2022-12-26T14:28:55.418Z,99.90
2022-12-26T14:32:06.805Z,99.90
2022-12-26T14:34:49.463Z,99.90
2022-12-26T14:37:23.649Z,99.90
2022-12-26T14:40:07.921Z,99.90
2022-12-26T14:43:12.791Z,99.90
2022-12-26T14:45:47.242Z,99.90
2022-12-26T14:48:51.077Z,99.90
2022-12-26T14:51:39.219Z,99.90
2022-12-26T14:54:33.992Z,99.90
2022-12-26T14:57:02.602Z,99.90
2022-12-26T14:59:34.538Z,99.90
2022-12-26T15:02:11.320Z,99.90
2022-12-26T15:05:04.125Z,99.90
2022-12-26T15:08:18.427Z,99.90
2022-12-26T15:11:23.279Z,99.90
2022-12-26T15:14:27.484Z,99.90
2022-12-26T15:17:07.957Z,99.90
2022-12-26T15:20:16.457Z,99.90
2022-12-26T15:23:05.045Z,99.90
2022-12-26T15:26:04.707Z,99.90
2022-12-26T15:29:11.335Z,99.90
2022-12-26T15:31:50.977Z,99.90
2022-12-26T15:34:44.416Z,99.90
2022-12-26T15:37:38.799Z,99.90
2022-12-26T15:40:15.954Z,99.90
2022-12-26T15:42:58.608Z,99.90
2022-12-26T15:45:39.081Z,99.90
2022-12-26T15:48:36.773Z,99.90
2022-12-26T15:51:12.406Z,99.90
2022-12-26T15:53:57.507Z,99.90
2022-12-26T15:56:51.101Z,99.90
2022-12-26T15:59:54.852Z,99.90
2022-12-26T16:02:37.711Z,99.90
2022-12-26T16:05:28.975Z,99.90
2022-12-26T16:08:05.845Z,99.90
2022-12-26T16:10:36.200Z,99.90
2022-12-26T16:13:30.371Z,99.90
2022-12-26T16:16:01.311Z,99.90
2022-12-26T16:18:54.995Z,99.90
2022-12-26T16:21:43.521Z,99.90
2022-12-26T16:24:15.445Z,99.90
2022-12-26T16:26:46.257Z,99.90
2022-12-26T16:29:19.304Z,99.90
2022-12-26T16:31:48.251Z,99.90
2022-12-26T16:34:19.330Z,99.90
2022-12-26T16:36:51.261Z,99.90
2022-12-26T16:39:24.933Z,99.90
2022-12-26T16:42:01.883Z,99.90
2022-12-26T16:44:35.651Z,99.90
2022-12-26T16:47:07.026Z,99.90
2022-12-26T16:49:36.155Z,99.90
2022-12-26T16:52:07.696Z,99.90
2022-12-26T16:54:42.527Z,99.90
2022-12-26T16:57:18.861Z,99.90
2022-12-26T16:59:53.735Z,99.90
2022-12-26T17:02:25.582Z,99.90
2022-12-26T17:05:02.264Z,99.90
2022-12-26T17:07:31.186Z,99.90
2022-12-26T17:10:02.291Z,99.90
2022-12-26T17:12:36.522Z,99.90
2022-12-26T17:15:31.920Z,99.90
2022-12-26T17:18:01.692Z,99.90
2022-12-26T17:20:40.646Z,99.90
2022-12-26T17:23:37.518Z,99.90
2022-12-26T17:26:22.938Z,99.90
2022-12-26T17:28:51.670Z,99.90
2022-12-26T17:31:25.774Z,99.90
2022-12-26T17:34:22.012Z,99.90
2022-12-26T17:37:18.547Z,99.90
2022-12-26T17:39:38.822Z,99.90
2022-12-26T17:42:08.768Z,99.90
2022-12-26T17:44:38.927Z,99.90
2022-12-26T17:47:20.507Z,99.90
2022-12-26T17:49:49.358Z,99.90
2022-12-26T17:52:21.413Z,99.90
2022-12-26T17:54:50.978Z,99.90
2022-12-26T17:57:23.236Z,99.90
2022-12-26T17:59:53.283Z,99.90
2022-12-26T18:02:22.522Z,99.90
2022-12-26T18:04:51.328Z,99.90
2022-12-26T18:07:28.737Z,99.90
2022-12-26T18:09:59.268Z,99.90
2022-12-26T18:12:29.307Z,99.90
2022-12-26T18:15:01.669Z,99.90
2022-12-26T18:17:34.184Z,99.90
2022-12-26T18:20:02.864Z,99.90
2022-12-26T18:22:31.296Z,99.90
2022-12-26T18:24:59.589Z,99.90
2022-12-26T18:27:31.696Z,99.90
2022-12-26T18:30:01.505Z,99.90
2022-12-26T18:32:55.254Z,99.90
2022-12-26T18:35:23.700Z,99.90
2022-12-26T18:37:53.802Z,99.90
2022-12-26T18:40:32.798Z,99.90
2022-12-26T18:43:03.039Z,99.90
2022-12-26T18:45:31.939Z,99.90
2022-12-26T18:48:00.494Z,99.90
2022-12-26T18:50:30.132Z,99.90
2022-12-26T18:52:58.820Z,99.90
2022-12-26T18:55:28.625Z,99.90
2022-12-26T18:57:57.518Z,99.90
2022-12-26T19:00:27.605Z,99.90
2022-12-26T19:02:56.667Z,99.90
2022-12-26T19:05:27.609Z,99.90
2022-12-26T19:07:56.344Z,99.90
2022-12-26T19:10:26.733Z,99.90
2022-12-26T19:13:02.826Z,99.90
2022-12-26T19:15:35.811Z,99.90
2022-12-26T19:18:32.414Z,99.90
2022-12-26T19:21:00.743Z,99.90
2022-12-26T19:23:29.154Z,99.90
2022-12-26T19:25:57.502Z,99.90
2022-12-26T19:28:25.835Z,99.90
2022-12-26T19:30:55.613Z,99.90
2022-12-26T19:33:54.285Z,99.90
2022-12-26T19:36:22.614Z,99.90
2022-12-26T19:39:20.137Z,99.90
2022-12-26T19:41:49.512Z,99.90
2022-12-26T19:44:18.765Z,99.90
2022-12-26T19:46:48.563Z,99.90
2022-12-26T19:49:18.013Z,99.90
2022-12-26T19:51:47.700Z,99.90
2022-12-26T19:54:16.159Z,99.90
2022-12-26T19:56:44.593Z,99.90
2022-12-26T19:59:12.980Z,99.90
2022-12-26T20:01:42.301Z,99.90
2022-12-26T20:04:12.812Z,99.90
2022-12-26T20:07:31.527Z,99.90
2022-12-26T20:09:59.876Z,99.90
2022-12-26T20:12:28.181Z,99.90
2022-12-26T20:14:56.537Z,99.90
2022-12-26T20:17:25.031Z,99.90
2022-12-26T20:19:54.768Z,99.90
2022-12-26T20:22:23.585Z,99.90
2022-12-26T20:24:51.910Z,99.90
2022-12-26T20:27:20.309Z,99.90
2022-12-26T20:29:48.668Z,99.90
2022-12-26T20:32:21.365Z,99.90
2022-12-26T20:34:49.714Z,99.90
2022-12-26T20:37:23.652Z,99.90
2022-12-26T20:39:51.991Z,99.90
2022-12-26T20:42:20.377Z,99.90
2022-12-26T20:44:48.712Z,99.90
2022-12-26T20:47:17.548Z,99.90
2022-12-26T20:49:45.879Z,99.90
2022-12-26T20:52:18.688Z,99.90
2022-12-26T20:54:48.429Z,99.90
2022-12-26T20:57:16.766Z,99.90
2022-12-26T20:59:46.147Z,99.90
2022-12-26T21:02:15.079Z,99.90
2022-12-26T21:04:43.499Z,99.90
2022-12-26T21:07:13.538Z,99.90
2022-12-26T21:09:46.232Z,99.90
2022-12-26T21:13:05.824Z,99.90
2022-12-26T21:15:35.672Z,99.90
2022-12-26T21:18:04.488Z,99.90
2022-12-26T21:20:33.208Z,99.90
2022-12-26T21:23:01.571Z,99.90
2022-12-26T21:25:30.490Z,99.90
2022-12-26T21:27:59.496Z,99.90
2022-12-26T21:30:28.040Z,99.90
2022-12-26T21:33:01.018Z,99.90
2022-12-26T21:35:29.323Z,99.90
2022-12-26T21:37:57.749Z,99.90
2022-12-26T21:40:27.698Z,99.90
2022-12-26T21:43:04.206Z,99.90
2022-12-26T21:45:32.552Z,99.90
2022-12-26T21:48:02.315Z,99.90
2022-12-26T21:50:30.604Z,99.90
2022-12-26T21:52:59.231Z,99.90
2022-12-26T21:55:27.697Z,99.90
2022-12-26T21:57:56.367Z,99.90
2022-12-26T22:00:25.230Z,99.90
2022-12-26T22:03:11.365Z,99.90
2022-12-26T22:05:42.509Z,99.90
2022-12-26T22:08:12.386Z,99.90
2022-12-26T22:11:36.704Z,99.90
2022-12-26T22:14:05.099Z,99.90
2022-12-26T22:16:34.079Z,99.90
2022-12-26T22:19:29.113Z,99.90
2022-12-26T22:21:58.914Z,99.90
2022-12-26T22:24:27.270Z,99.90
2022-12-26T22:26:55.652Z,99.90
2022-12-26T22:29:24.977Z,99.90
2022-12-26T22:31:53.349Z,99.90
2022-12-26T22:34:22.706Z,99.90
2022-12-26T22:36:51.047Z,99.90
2022-12-26T22:39:20.848Z,99.90
2022-12-26T22:41:49.337Z,99.90
2022-12-26T22:44:17.623Z,99.90
2022-12-26T22:46:45.968Z,99.90
2022-12-26T22:49:14.419Z,99.90
2022-12-26T22:51:43.423Z,99.90
2022-12-26T22:54:11.730Z,99.90
2022-12-26T22:56:41.453Z,99.90
2022-12-26T22:59:27.412Z,99.90
2022-12-26T23:02:00.891Z,99.90
2022-12-26T23:04:32.246Z,99.90
2022-12-26T23:07:01.290Z,99.90
2022-12-26T23:09:30.016Z,99.90
2022-12-26T23:12:49.035Z,99.90
2022-12-26T23:15:21.297Z,99.90
2022-12-26T23:18:13.959Z,99.90
2022-12-26T23:21:00.295Z,99.90
2022-12-26T23:23:29.102Z,99.90
2022-12-26T23:26:00.558Z,99.90
2022-12-26T23:28:46.445Z,99.90
2022-12-26T23:31:16.726Z,99.90
2022-12-26T23:33:46.184Z,99.90
2022-12-26T23:36:14.543Z,99.90
2022-12-26T23:38:43.836Z,99.90
2022-12-26T23:41:16.203Z,99.90
2022-12-26T23:43:44.528Z,99.90
2022-12-26T23:46:13.302Z,99.90
2022-12-26T23:48:43.037Z,99.90
2022-12-26T23:51:11.408Z,99.90
2022-12-26T23:53:39.978Z,99.90
2022-12-26T23:56:10.497Z,99.90
2022-12-26T23:58:40.009Z,99.90
